Time;durP1;ratioP1;P1;durP2;ratioP2;P2;SDS_P1;SDS_P2;PMS_P1;PMS_P2;Temp;Humidity;BMP_temperature;BMP_pressure;BME280_temperature;BME280_humidity;BME280_pressure;Samples;Min_cycle;Max_cycle;Signal;HPM_P1;HPM_P2
2023/12/04 00:01:26;;;;;;;36.58;17.30;;;;;;;;;;4816554;29;20105;-89
2023/12/04 00:03:52;;;;;;;42.67;18.50;;;;;;;;;;4817354;29;20048;-89
2023/12/04 00:06:19;;;;;;;34.28;16.73;;;;;;;;;;4818651;29;20766;-89
2023/12/04 00:08:45;;;;;;;34.33;16.73;;;;;;;;;;4802503;29;20600;-89
2023/12/04 00:11:11;;;;;;;36.95;16.75;;;;;;;;;;4801641;29;20052;-89
2023/12/04 00:13:37;;;;;;;37.72;17.77;;;;;;;;;;4803012;29;20050;-90
2023/12/04 00:16:03;;;;;;;23.67;12.98;;;;;;;;;;4807076;29;20045;-88
2023/12/04 00:18:30;;;;;;;37.53;18.55;;;;;;;;;;4817303;29;20188;-89
2023/12/04 00:20:56;;;;;;;31.20;14.88;;;;;;;;;;4819148;29;20045;-89
2023/12/04 00:23:22;;;;;;;35.75;15.20;;;;;;;;;;4804967;29;20049;-89
2023/12/04 00:25:48;;;;;;;34.53;15.85;;;;;;;;;;4805403;29;20844;-89
2023/12/04 00:28:14;;;;;;;33.45;16.02;;;;;;;;;;4819527;29;20081;-89
2023/12/04 00:30:40;;;;;;;35.47;19.00;;;;;;;;;;4804494;29;20064;-89
2023/12/04 00:33:06;;;;;;;33.85;18.55;;;;;;;;;;4805042;29;20050;-89
2023/12/04 00:35:32;;;;;;;32.03;15.93;;;;;;;;;;4805314;29;20432;-89
2023/12/04 00:37:58;;;;;;;33.38;15.60;;;;;;;;;;4820175;29;20054;-89
2023/12/04 00:40:24;;;;;;;24.88;12.48;;;;;;;;;;4803339;29;20049;-89
2023/12/04 00:42:50;;;;;;;34.60;15.95;;;;;;;;;;4787553;29;20057;-88
2023/12/04 00:45:16;;;;;;;34.45;17.67;;;;;;;;;;4809764;29;20058;-89
2023/12/04 00:47:42;;;;;;;34.75;17.98;;;;;;;;;;4834747;29;20045;-89
2023/12/04 00:50:08;;;;;;;38.10;16.38;;;;;;;;;;4803814;29;20572;-89
2023/12/04 00:52:34;;;;;;;34.28;16.35;;;;;;;;;;4813727;29;20129;-89
2023/12/04 00:55:00;;;;;;;27.85;14.45;;;;;;;;;;4805396;29;20050;-89
2023/12/04 00:57:26;;;;;;;36.60;16.27;;;;;;;;;;4804429;29;20501;-89
2023/12/04 00:59:52;;;;;;;33.92;16.25;;;;;;;;;;4805256;29;20071;-89
2023/12/04 01:02:18;;;;;;;37.53;17.58;;;;;;;;;;4804830;29;20073;-89
2023/12/04 01:04:44;;;;;;;23.17;13.40;;;;;;;;;;4804976;29;20092;-89
2023/12/04 01:07:10;;;;;;;37.85;18.92;;;;;;;;;;4810193;29;20117;-89
2023/12/04 01:09:37;;;;;;;32.85;17.70;;;;;;;;;;4803924;29;20153;-89
2023/12/04 01:12:03;;;;;;;35.63;17.50;;;;;;;;;;4813687;29;20070;-89
2023/12/04 01:14:29;;;;;;;33.58;17.83;;;;;;;;;;4800430;29;20049;-89
2023/12/04 01:16:55;;;;;;;34.20;16.33;;;;;;;;;;4813782;29;20329;-89
2023/12/04 01:19:21;;;;;;;39.33;18.67;;;;;;;;;;4817908;29;20572;-89
2023/12/04 01:21:47;;;;;;;33.35;17.13;;;;;;;;;;4801931;29;20060;-89
2023/12/04 01:24:14;;;;;;;32.92;15.27;;;;;;;;;;4809717;29;20132;-89
2023/12/04 01:26:40;;;;;;;34.45;15.70;;;;;;;;;;4803663;29;20056;-89
2023/12/04 01:29:06;;;;;;;33.40;15.88;;;;;;;;;;4800726;29;20108;-89
2023/12/04 01:31:32;;;;;;;40.13;19.70;;;;;;;;;;4827740;29;20584;-89
2023/12/04 01:33:58;;;;;;;31.65;14.65;;;;;;;;;;4824121;29;20053;-89
2023/12/04 01:36:24;;;;;;;32.38;16.23;;;;;;;;;;4804101;29;20073;-89
2023/12/04 01:38:50;;;;;;;38.30;17.23;;;;;;;;;;4819490;29;20073;-88
2023/12/04 01:41:16;;;;;;;35.35;17.30;;;;;;;;;;4801683;29;20400;-89
2023/12/04 01:43:42;;;;;;;37.58;18.50;;;;;;;;;;4804556;29;20042;-89
2023/12/04 01:46:09;;;;;;;38.00;18.80;;;;;;;;;;4804224;29;20409;-89
2023/12/04 01:48:36;;;;;;;38.67;16.25;;;;;;;;;;4805140;29;20484;-89
2023/12/04 01:51:06;;;;;;;30.63;15.35;;;;;;;;;;4809789;29;20405;-88
2023/12/04 01:53:32;;;;;;;32.53;15.35;;;;;;;;;;4818629;29;20050;-88
2023/12/04 01:55:59;;;;;;;35.15;17.60;;;;;;;;;;4819508;29;20057;-89
2023/12/04 01:58:25;;;;;;;40.40;18.73;;;;;;;;;;4818831;29;20126;-89
2023/12/04 02:00:51;;;;;;;41.00;18.15;;;;;;;;;;4812710;29;20073;-90
2023/12/04 02:03:17;;;;;;;38.47;18.27;;;;;;;;;;4810959;29;20054;-89
2023/12/04 02:05:46;;;;;;;38.55;18.38;;;;;;;;;;4799164;29;20054;-89
2023/12/04 02:08:12;;;;;;;33.33;15.70;;;;;;;;;;4803778;29;20053;-89
2023/12/04 02:10:39;;;;;;;30.15;12.70;;;;;;;;;;4803805;29;20081;-89
2023/12/04 02:13:05;;;;;;;22.52;13.38;;;;;;;;;;4803438;29;20492;-89
2023/12/04 02:15:31;;;;;;;31.38;16.75;;;;;;;;;;4818623;29;20125;-89
2023/12/04 02:17:58;;;;;;;33.25;15.93;;;;;;;;;;4801911;29;20053;-89
2023/12/04 02:20:32;;;;;;;35.38;16.17;;;;;;;;;;4824739;29;20821;-88
2023/12/04 02:22:58;;;;;;;38.28;18.13;;;;;;;;;;4803621;29;20645;-89
2023/12/04 02:25:24;;;;;;;28.83;14.80;;;;;;;;;;4803319;29;20045;-89
2023/12/04 02:27:50;;;;;;;36.55;17.25;;;;;;;;;;4805111;29;20098;-89
2023/12/04 02:30:18;;;;;;;32.35;16.00;;;;;;;;;;4803365;29;20173;-89
2023/12/04 02:32:46;;;;;;;28.70;12.48;;;;;;;;;;4801863;29;20504;-89
2023/12/04 02:35:14;;;;;;;33.67;16.25;;;;;;;;;;4807778;29;20049;-89
2023/12/04 02:37:41;;;;;;;35.22;17.30;;;;;;;;;;4803736;29;20137;-89
2023/12/04 02:40:07;;;;;;;36.20;17.42;;;;;;;;;;4803676;29;20054;-89
2023/12/04 02:42:33;;;;;;;35.17;17.05;;;;;;;;;;4797644;29;20492;-89
2023/12/04 02:44:59;;;;;;;36.40;18.15;;;;;;;;;;4816359;29;20050;-89
2023/12/04 02:47:25;;;;;;;33.13;14.32;;;;;;;;;;4804185;29;20050;-89
2023/12/04 02:49:52;;;;;;;35.97;17.23;;;;;;;;;;4804208;29;20094;-89
2023/12/04 02:52:18;;;;;;;34.60;17.35;;;;;;;;;;4811240;29;20042;-88
2023/12/04 02:54:44;;;;;;;38.72;17.90;;;;;;;;;;4804949;29;20089;-89
2023/12/04 02:57:10;;;;;;;28.75;15.23;;;;;;;;;;4818083;29;20130;-89
2023/12/04 02:59:37;;;;;;;36.10;17.23;;;;;;;;;;4817699;29;20129;-89
2023/12/04 03:02:03;;;;;;;31.35;15.35;;;;;;;;;;4799210;29;20134;-89
2023/12/04 03:04:29;;;;;;;34.65;17.60;;;;;;;;;;4802850;29;20069;-89
2023/12/04 03:06:58;;;;;;;35.55;16.35;;;;;;;;;;4810644;29;20065;-90
2023/12/04 03:09:24;;;;;;;32.28;16.55;;;;;;;;;;4796904;29;20552;-88
2023/12/04 03:11:50;;;;;;;38.72;16.67;;;;;;;;;;4785015;29;20051;-89
2023/12/04 03:14:16;;;;;;;26.92;13.48;;;;;;;;;;4795340;29;20060;-89
2023/12/04 03:16:42;;;;;;;32.65;15.40;;;;;;;;;;4802106;29;20053;-87
2023/12/04 03:19:08;;;;;;;30.02;14.23;;;;;;;;;;4817574;29;20046;-91
2023/12/04 03:21:34;;;;;;;30.85;13.88;;;;;;;;;;4802470;29;20060;-91
2023/12/04 03:24:00;;;;;;;28.95;14.75;;;;;;;;;;4802533;29;20524;-90
2023/12/04 03:26:28;;;;;;;24.02;12.07;;;;;;;;;;4815220;29;20097;-88
2023/12/04 03:28:54;;;;;;;31.05;14.40;;;;;;;;;;4814391;29;20606;-89
2023/12/04 03:31:20;;;;;;;24.30;11.93;;;;;;;;;;4817642;29;20050;-88
2023/12/04 03:33:46;;;;;;;33.55;14.20;;;;;;;;;;4807129;29;20049;-88
2023/12/04 03:36:12;;;;;;;35.75;15.27;;;;;;;;;;4811396;29;20122;-88
2023/12/04 03:38:38;;;;;;;34.83;14.88;;;;;;;;;;4791676;29;20106;-88
2023/12/04 03:41:04;;;;;;;27.80;13.52;;;;;;;;;;4813799;29;20062;-88
2023/12/04 03:43:30;;;;;;;31.00;14.00;;;;;;;;;;4805250;29;20050;-89
2023/12/04 03:45:56;;;;;;;27.23;11.68;;;;;;;;;;4826141;29;20049;-87
2023/12/04 03:48:22;;;;;;;34.10;13.73;;;;;;;;;;4802841;29;20718;-89
2023/12/04 03:50:48;;;;;;;29.90;12.88;;;;;;;;;;4802923;29;20053;-88
2023/12/04 03:53:14;;;;;;;33.45;15.13;;;;;;;;;;4810236;29;20049;-88
2023/12/04 03:55:40;;;;;;;28.27;12.52;;;;;;;;;;4815428;29;20069;-88
2023/12/04 03:58:06;;;;;;;31.30;14.65;;;;;;;;;;4808278;29;20413;-88
2023/12/04 04:00:32;;;;;;;26.40;12.23;;;;;;;;;;4793249;29;20152;-88
2023/12/04 04:02:58;;;;;;;31.83;14.70;;;;;;;;;;4816016;29;20050;-89
2023/12/04 04:05:24;;;;;;;30.95;14.63;;;;;;;;;;4799232;29;20110;-88
2023/12/04 04:07:50;;;;;;;27.92;12.57;;;;;;;;;;4820682;29;20065;-88
2023/12/04 04:10:16;;;;;;;26.15;12.48;;;;;;;;;;4820751;29;20513;-88
2023/12/04 04:12:42;;;;;;;31.75;14.45;;;;;;;;;;4820529;29;20084;-89
2023/12/04 04:15:08;;;;;;;25.58;12.93;;;;;;;;;;4805652;29;20046;-88
2023/12/04 04:17:35;;;;;;;29.73;13.35;;;;;;;;;;4806126;29;20801;-88
2023/12/04 04:20:01;;;;;;;27.23;12.82;;;;;;;;;;4802169;29;20139;-88
2023/12/04 04:22:27;;;;;;;30.60;11.75;;;;;;;;;;4821256;29;20481;-88
2023/12/04 04:24:53;;;;;;;20.90;9.63;;;;;;;;;;4820277;29;20052;-88
2023/12/04 04:27:19;;;;;;;28.92;14.15;;;;;;;;;;4822899;29;20053;-88
2023/12/04 04:29:45;;;;;;;29.65;13.82;;;;;;;;;;4820174;29;20053;-88
2023/12/04 04:32:11;;;;;;;30.67;13.63;;;;;;;;;;4819283;29;20151;-88
2023/12/04 04:34:37;;;;;;;30.35;13.65;;;;;;;;;;4820895;29;20042;-88
2023/12/04 04:37:03;;;;;;;26.20;11.70;;;;;;;;;;4820977;29;20092;-88
2023/12/04 04:39:29;;;;;;;29.58;12.60;;;;;;;;;;4815856;29;20513;-88
2023/12/04 04:41:55;;;;;;;28.63;13.77;;;;;;;;;;4801795;29;20046;-89
2023/12/04 04:44:21;;;;;;;28.23;12.52;;;;;;;;;;4823610;29;20054;-88
2023/12/04 04:46:47;;;;;;;23.17;12.02;;;;;;;;;;4817940;29;20063;-88
2023/12/04 04:49:13;;;;;;;25.67;11.98;;;;;;;;;;4824829;29;20501;-88
2023/12/04 04:51:39;;;;;;;25.95;12.07;;;;;;;;;;4791950;29;20050;-88
2023/12/04 04:54:05;;;;;;;26.15;13.77;;;;;;;;;;4801675;29;20420;-88
2023/12/04 04:56:31;;;;;;;30.70;14.05;;;;;;;;;;4819649;29;20038;-88
2023/12/04 04:58:57;;;;;;;25.80;13.10;;;;;;;;;;4815592;29;20054;-89
2023/12/04 05:01:23;;;;;;;24.75;12.30;;;;;;;;;;4805366;29;20084;-88
2023/12/04 05:03:49;;;;;;;21.27;10.38;;;;;;;;;;4819990;29;20042;-88
2023/12/04 05:06:15;;;;;;;28.83;14.10;;;;;;;;;;4791896;29;20060;-89
2023/12/04 05:08:41;;;;;;;27.58;13.88;;;;;;;;;;4814492;29;20146;-89
2023/12/04 05:11:07;;;;;;;23.42;12.82;;;;;;;;;;4801985;29;20077;-88
2023/12/04 05:13:33;;;;;;;22.55;10.90;;;;;;;;;;4820089;29;20045;-88
2023/12/04 05:15:59;;;;;;;24.90;11.93;;;;;;;;;;4804853;29;20152;-89
2023/12/04 05:18:26;;;;;;;26.73;12.10;;;;;;;;;;4817698;29;20126;-89
2023/12/04 05:20:52;;;;;;;23.75;11.43;;;;;;;;;;4804635;29;20577;-89
2023/12/04 05:23:18;;;;;;;26.40;12.05;;;;;;;;;;4804324;29;20053;-89
2023/12/04 05:25:44;;;;;;;24.98;11.55;;;;;;;;;;4808811;29;20057;-89
2023/12/04 05:28:10;;;;;;;27.45;12.82;;;;;;;;;;4819129;29;20511;-88
2023/12/04 05:30:36;;;;;;;25.67;12.13;;;;;;;;;;4804442;29;20132;-88
2023/12/04 05:33:02;;;;;;;20.10;10.05;;;;;;;;;;4823939;29;20247;-88
2023/12/04 05:35:28;;;;;;;22.75;10.45;;;;;;;;;;4802224;29;20054;-88
2023/12/04 05:37:54;;;;;;;23.80;11.02;;;;;;;;;;4824283;29;20054;-88
2023/12/04 05:40:20;;;;;;;23.70;11.43;;;;;;;;;;4814379;29;20812;-88
2023/12/04 05:42:46;;;;;;;23.08;11.85;;;;;;;;;;4803751;29;20046;-88
2023/12/04 05:45:12;;;;;;;27.90;10.90;;;;;;;;;;4804086;29;20052;-89
2023/12/04 05:47:38;;;;;;;22.27;10.85;;;;;;;;;;4819174;29;20045;-88
2023/12/04 05:50:04;;;;;;;24.83;10.45;;;;;;;;;;4819456;29;20082;-88
2023/12/04 05:52:30;;;;;;;17.38;8.50;;;;;;;;;;4793154;29;20034;-88
2023/12/04 05:54:56;;;;;;;23.83;11.27;;;;;;;;;;4804030;29;20053;-88
2023/12/04 05:57:22;;;;;;;23.75;11.88;;;;;;;;;;4803967;29;20805;-88
2023/12/04 05:59:48;;;;;;;20.35;10.10;;;;;;;;;;4824750;29;20053;-88
2023/12/04 06:02:15;;;;;;;25.90;11.90;;;;;;;;;;4819630;29;20152;-89
2023/12/04 06:04:41;;;;;;;16.15;8.15;;;;;;;;;;4804028;29;20429;-88
2023/12/04 06:07:07;;;;;;;20.02;9.93;;;;;;;;;;4803834;29;20565;-89
2023/12/04 06:09:36;;;;;;;21.67;11.85;;;;;;;;;;4818994;29;20569;-89
2023/12/04 06:12:07;;;;;;;21.75;10.93;;;;;;;;;;4820511;29;20525;-89
2023/12/04 06:14:33;;;;;;;18.58;9.10;;;;;;;;;;4821683;29;20057;-89
2023/12/04 06:16:59;;;;;;;19.27;9.80;;;;;;;;;;4814195;29;20042;-88
2023/12/04 06:19:25;;;;;;;19.25;9.05;;;;;;;;;;4805470;29;20470;-88
2023/12/04 06:21:52;;;;;;;17.52;9.05;;;;;;;;;;4807934;29;20053;-88
2023/12/04 06:24:19;;;;;;;24.00;11.48;;;;;;;;;;4824258;29;20050;-88
2023/12/04 06:26:48;;;;;;;19.00;8.95;;;;;;;;;;4810762;29;20049;-88
2023/12/04 06:29:14;;;;;;;22.98;10.95;;;;;;;;;;4818834;29;20085;-88
2023/12/04 06:31:41;;;;;;;25.88;11.18;;;;;;;;;;4803237;29;20087;-88
2023/12/04 06:34:07;;;;;;;19.02;9.20;;;;;;;;;;4803422;29;20221;-89
2023/12/04 06:36:36;;;;;;;21.35;10.07;;;;;;;;;;4803385;29;20057;-88
2023/12/04 06:39:04;;;;;;;21.67;10.93;;;;;;;;;;4819129;29;20049;-89
2023/12/04 06:41:30;;;;;;;21.63;11.23;;;;;;;;;;4818862;29;20146;-88
2023/12/04 06:43:56;;;;;;;17.73;8.52;;;;;;;;;;4803221;29;20049;-88
2023/12/04 06:46:24;;;;;;;18.20;10.30;;;;;;;;;;4818610;29;20113;-89
2023/12/04 06:48:51;;;;;;;21.13;10.73;;;;;;;;;;4813972;29;20065;-89
2023/12/04 06:51:18;;;;;;;17.38;8.95;;;;;;;;;;4829402;29;20444;-89
2023/12/04 06:53:44;;;;;;;20.42;10.23;;;;;;;;;;4799504;29;20152;-88
2023/12/04 06:56:10;;;;;;;20.30;11.15;;;;;;;;;;4820191;29;20512;-88
2023/12/04 06:58:36;;;;;;;15.95;9.30;;;;;;;;;;4800451;29;20675;-89
2023/12/04 07:01:03;;;;;;;21.08;9.18;;;;;;;;;;4819985;29;20045;-89
2023/12/04 07:03:29;;;;;;;17.45;9.25;;;;;;;;;;4813049;29;20053;-89
2023/12/04 07:05:55;;;;;;;14.05;8.52;;;;;;;;;;4818188;29;20521;-88
2023/12/04 07:08:21;;;;;;;16.55;8.18;;;;;;;;;;4804252;29;20079;-89
2023/12/04 07:10:47;;;;;;;20.88;10.50;;;;;;;;;;4829314;29;20057;-89
2023/12/04 07:13:13;;;;;;;17.80;9.13;;;;;;;;;;4809647;29;20556;-87
2023/12/04 07:15:39;;;;;;;21.67;9.32;;;;;;;;;;4800401;29;20528;-89
2023/12/04 07:18:05;;;;;;;13.45;7.28;;;;;;;;;;4797969;29;20478;-89
2023/12/04 07:20:31;;;;;;;20.80;9.73;;;;;;;;;;4801846;29;20136;-89
2023/12/04 07:22:58;;;;;;;15.43;7.32;;;;;;;;;;4815857;29;20149;-88
2023/12/04 07:25:24;;;;;;;16.77;9.18;;;;;;;;;;4784947;29;20050;-88
2023/12/04 07:27:50;;;;;;;14.60;8.25;;;;;;;;;;4813105;29;20081;-89
2023/12/04 07:30:16;;;;;;;14.27;8.77;;;;;;;;;;4818410;29;20042;-89
2023/12/04 07:32:42;;;;;;;19.83;9.98;;;;;;;;;;4813657;29;20095;-89
2023/12/04 07:35:08;;;;;;;12.90;7.88;;;;;;;;;;4802807;29;20049;-88
2023/12/04 07:37:34;;;;;;;11.43;6.47;;;;;;;;;;4817899;29;20050;-89
2023/12/04 07:40:00;;;;;;;16.50;8.30;;;;;;;;;;4802627;29;20052;-88
2023/12/04 07:42:27;;;;;;;18.20;7.30;;;;;;;;;;4802489;29;20169;-89
2023/12/04 07:44:53;;;;;;;17.33;8.10;;;;;;;;;;4817485;29;20569;-89
2023/12/04 07:47:19;;;;;;;15.02;8.35;;;;;;;;;;4825329;29;20049;-88
2023/12/04 07:49:45;;;;;;;14.90;7.43;;;;;;;;;;4806423;29;20057;-88
2023/12/04 07:52:11;;;;;;;17.92;9.00;;;;;;;;;;4816624;29;20050;-88
2023/12/04 07:54:37;;;;;;;13.90;6.47;;;;;;;;;;4811110;29;20038;-89
2023/12/04 07:57:03;;;;;;;15.23;7.63;;;;;;;;;;4811468;29;20055;-89
2023/12/04 07:59:29;;;;;;;12.25;6.75;;;;;;;;;;4816966;29;20404;-89
2023/12/04 08:01:55;;;;;;;13.93;7.85;;;;;;;;;;4817311;29;20865;-89
2023/12/04 08:04:21;;;;;;;15.07;6.88;;;;;;;;;;4815157;29;20156;-89
2023/12/04 08:06:47;;;;;;;15.25;7.55;;;;;;;;;;4817457;29;20077;-89
2023/12/04 08:09:13;;;;;;;10.65;6.35;;;;;;;;;;4814151;29;20058;-88
2023/12/04 08:11:39;;;;;;;13.65;7.32;;;;;;;;;;4815508;29;20099;-88
2023/12/04 08:14:06;;;;;;;11.52;6.28;;;;;;;;;;4809116;29;20054;-88
2023/12/04 08:16:32;;;;;;;14.60;7.35;;;;;;;;;;4804044;29;20137;-89
2023/12/04 08:18:58;;;;;;;12.65;6.45;;;;;;;;;;4797838;29;20099;-88
2023/12/04 08:21:24;;;;;;;10.68;5.38;;;;;;;;;;4814688;29;20038;-88
2023/12/04 08:23:50;;;;;;;11.35;5.97;;;;;;;;;;4826315;29;20046;-88
2023/12/04 08:26:24;;;;;;;11.02;5.70;;;;;;;;;;4810745;29;20128;-88
2023/12/04 08:28:50;;;;;;;12.15;6.50;;;;;;;;;;4811817;29;20049;-89
2023/12/04 08:31:19;;;;;;;11.90;6.47;;;;;;;;;;4817436;29;20050;-89
2023/12/04 08:33:45;;;;;;;10.90;5.78;;;;;;;;;;4831035;29;20057;-88
2023/12/04 08:36:12;;;;;;;11.70;5.80;;;;;;;;;;4805213;29;20102;-88
2023/12/04 08:38:38;;;;;;;13.90;7.28;;;;;;;;;;4817412;29;20054;-89
2023/12/04 08:41:05;;;;;;;10.48;6.00;;;;;;;;;;4818614;29;20053;-90
2023/12/04 08:43:31;;;;;;;8.93;4.80;;;;;;;;;;4810986;29;20053;-89
2023/12/04 08:45:57;;;;;;;11.38;6.45;;;;;;;;;;4830494;29;20576;-88
2023/12/04 08:48:23;;;;;;;8.90;4.22;;;;;;;;;;4820575;29;20086;-88
2023/12/04 08:50:49;;;;;;;11.43;6.00;;;;;;;;;;4828416;29;20046;-88
2023/12/04 08:53:15;;;;;;;9.60;5.13;;;;;;;;;;4821265;29;20137;-88
2023/12/04 08:55:41;;;;;;;12.38;6.35;;;;;;;;;;4818642;29;20113;-89
2023/12/04 08:58:07;;;;;;;10.60;6.10;;;;;;;;;;4812223;29;20449;-89
2023/12/04 09:00:35;;;;;;;13.02;7.25;;;;;;;;;;4802605;29;20038;-87
2023/12/04 09:03:01;;;;;;;8.70;5.38;;;;;;;;;;4802004;29;20055;-88
2023/12/04 09:05:27;;;;;;;8.70;4.82;;;;;;;;;;4801633;29;20077;-89
2023/12/04 09:07:53;;;;;;;9.02;5.07;;;;;;;;;;4805157;29;20065;-89
2023/12/04 09:10:20;;;;;;;10.10;5.47;;;;;;;;;;4805813;29;20092;-89
2023/12/04 09:12:46;;;;;;;9.40;5.18;;;;;;;;;;4807916;29;20436;-88
2023/12/04 09:15:12;;;;;;;10.18;5.03;;;;;;;;;;4805047;29;20041;-89
2023/12/04 09:17:39;;;;;;;8.18;4.78;;;;;;;;;;4796021;29;20046;-88
2023/12/04 09:20:05;;;;;;;9.77;5.57;;;;;;;;;;4817306;29;20064;-89
2023/12/04 09:22:31;;;;;;;11.93;6.40;;;;;;;;;;4819617;29;20050;-88
2023/12/04 09:24:57;;;;;;;8.65;4.22;;;;;;;;;;4819922;29;20050;-88
2023/12/04 09:27:24;;;;;;;9.70;5.43;;;;;;;;;;4811623;29;20137;-88
2023/12/04 09:29:50;;;;;;;7.18;4.28;;;;;;;;;;4819931;29;20057;-89
2023/12/04 09:32:16;;;;;;;9.10;5.15;;;;;;;;;;4819357;29;20061;-89
2023/12/04 09:34:42;;;;;;;9.45;4.90;;;;;;;;;;4814572;29;20057;-89
2023/12/04 09:37:08;;;;;;;10.07;5.95;;;;;;;;;;4801526;29;20090;-88
2023/12/04 09:39:34;;;;;;;9.75;5.40;;;;;;;;;;4805307;29;20605;-89
2023/12/04 09:42:00;;;;;;;8.90;5.30;;;;;;;;;;4819096;29;20054;-88
2023/12/04 09:44:27;;;;;;;9.82;5.43;;;;;;;;;;4818011;29;20797;-88
2023/12/04 09:46:54;;;;;;;10.32;5.43;;;;;;;;;;4819096;29;20050;-89
2023/12/04 09:49:20;;;;;;;10.18;5.50;;;;;;;;;;4804032;29;20060;-89
2023/12/04 09:51:46;;;;;;;7.88;4.30;;;;;;;;;;4803525;29;20141;-89
2023/12/04 09:54:12;;;;;;;8.82;4.93;;;;;;;;;;4803198;29;20064;-89
2023/12/04 09:56:39;;;;;;;9.50;5.40;;;;;;;;;;4822828;29;20072;-89
2023/12/04 09:59:07;;;;;;;8.73;5.57;;;;;;;;;;4818943;29;20057;-89
2023/12/04 10:01:34;;;;;;;9.93;5.70;;;;;;;;;;4803969;29;20042;-88
2023/12/04 10:04:00;;;;;;;12.80;5.20;;;;;;;;;;4818683;29;20133;-89
2023/12/04 10:06:28;;;;;;;8.95;4.90;;;;;;;;;;4803065;29;20144;-88
2023/12/04 10:08:57;;;;;;;10.15;5.05;;;;;;;;;;4818421;29;20049;-89
2023/12/04 10:11:23;;;;;;;10.60;5.75;;;;;;;;;;4815885;29;20046;-88
2023/12/04 10:13:49;;;;;;;9.25;5.13;;;;;;;;;;4818828;29;20056;-88
2023/12/04 10:16:15;;;;;;;10.25;5.68;;;;;;;;;;4809766;29;20060;-89
2023/12/04 10:18:41;;;;;;;9.20;5.28;;;;;;;;;;4816627;29;20045;-89
2023/12/04 10:21:07;;;;;;;5.93;3.83;;;;;;;;;;4814369;29;20058;-89
2023/12/04 10:23:43;;;;;;;8.18;4.30;;;;;;;;;;4807113;29;20042;-89
2023/12/04 10:26:09;;;;;;;10.98;5.80;;;;;;;;;;4807022;29;20049;-88
2023/12/04 10:28:36;;;;;;;11.75;5.40;;;;;;;;;;4818026;29;20632;-89
2023/12/04 10:31:06;;;;;;;10.15;5.07;;;;;;;;;;4800425;29;20122;-88
2023/12/04 10:33:33;;;;;;;7.68;4.50;;;;;;;;;;4813112;29;20054;-88
2023/12/04 10:36:00;;;;;;;9.35;6.03;;;;;;;;;;4812453;29;20566;-89
2023/12/04 10:38:27;;;;;;;9.73;5.68;;;;;;;;;;4809760;29;20588;-89
2023/12/04 10:40:53;;;;;;;9.30;5.93;;;;;;;;;;4818298;29;20056;-89
2023/12/04 10:43:20;;;;;;;11.30;5.90;;;;;;;;;;4801678;29;20080;-89
2023/12/04 10:45:47;;;;;;;10.75;6.15;;;;;;;;;;4822853;29;20138;-89
2023/12/04 10:48:14;;;;;;;12.35;6.05;;;;;;;;;;4800330;29;20054;-89
2023/12/04 10:50:44;;;;;;;13.85;6.90;;;;;;;;;;4828707;29;20512;-88
2023/12/04 10:53:11;;;;;;;9.13;5.55;;;;;;;;;;4804305;29;20050;-89
2023/12/04 10:55:37;;;;;;;10.50;5.25;;;;;;;;;;4803430;29;20924;-89
2023/12/04 10:58:05;;;;;;;12.95;6.93;;;;;;;;;;4803216;29;20118;-88
2023/12/04 11:00:35;;;;;;;7.68;4.90;;;;;;;;;;4802593;29;20045;-89
2023/12/04 11:03:08;;;;;;;9.90;5.72;;;;;;;;;;4797797;29;20100;-89
2023/12/04 11:05:39;;;;;;;11.80;6.45;;;;;;;;;;4804912;29;20049;-88
2023/12/04 11:08:06;;;;;;;12.75;6.40;;;;;;;;;;4809607;29;20057;-89
2023/12/04 11:10:34;;;;;;;11.10;5.53;;;;;;;;;;4806964;29;20049;-89
2023/12/04 11:13:06;;;;;;;12.30;5.82;;;;;;;;;;4828006;29;20137;-88
2023/12/04 11:15:36;;;;;;;10.88;5.57;;;;;;;;;;4793455;29;20589;-89
2023/12/04 11:18:02;;;;;;;14.18;6.22;;;;;;;;;;4831965;29;20149;-89
2023/12/04 11:20:30;;;;;;;11.43;6.13;;;;;;;;;;4816001;29;20096;-89
2023/12/04 11:22:57;;;;;;;9.98;5.68;;;;;;;;;;4805745;29;20054;-89
2023/12/04 11:25:24;;;;;;;8.65;5.22;;;;;;;;;;4821134;29;20053;-89
2023/12/04 11:27:51;;;;;;;10.20;6.07;;;;;;;;;;4819345;29;20049;-90
2023/12/04 11:30:18;;;;;;;10.20;5.47;;;;;;;;;;4830756;29;20060;-89
2023/12/04 11:32:48;;;;;;;11.15;5.57;;;;;;;;;;4806847;29;20235;-89
2023/12/04 11:35:18;;;;;;;11.68;5.93;;;;;;;;;;4819603;29;20049;-89
2023/12/04 11:37:45;;;;;;;7.25;4.90;;;;;;;;;;4818410;29;20203;-88
2023/12/04 11:40:17;;;;;;;10.65;6.20;;;;;;;;;;4831085;29;20050;-89
2023/12/04 11:42:43;;;;;;;10.88;6.10;;;;;;;;;;4823177;29;20050;-89
2023/12/04 11:45:10;;;;;;;11.70;6.78;;;;;;;;;;4819497;29;20077;-89
2023/12/04 11:47:56;;;;;;;7.65;4.85;;;;;;;;;;4785403;29;20050;-89
2023/12/04 11:50:22;;;;;;;;;;;2.80;99.90;;;;;;4797618;29;20051;-89
2023/12/04 11:52:48;;;;;;;12.43;6.63;;;;;;;;;;4814496;29;19931;-89
2023/12/04 11:55:18;;;;;;;10.30;5.57;;;;;;;;;;4821191;29;20053;-89
2023/12/04 11:57:45;;;;;;;9.80;5.97;;;;;;;;;;4823701;29;20045;-88
2023/12/04 12:00:11;;;;;;;10.50;6.65;;;;;;;;;;4836215;29;20053;-88
2023/12/04 12:02:41;;;;;;;11.60;6.28;;;;;;;;;;4803249;29;20619;-89
2023/12/04 12:05:07;;;;;;;11.80;6.53;;;;;;;;;;4791688;29;20056;-89
2023/12/04 12:07:34;;;;;;;8.90;5.03;;;;;;;;;;4827976;29;20476;-89
2023/12/04 12:10:00;;;;;;;10.75;6.70;;;;;;;;;;4791111;29;20061;-89
2023/12/04 12:12:29;;;;;;;10.10;5.63;;;;;;;;;;4808342;29;20110;-89
2023/12/04 12:14:55;;;;;;;11.23;5.90;;;;;;;;;;4794684;29;20081;-88
2023/12/04 12:17:21;;;;;;;8.80;5.22;;;;;;;;;;4817091;29;20052;-89
2023/12/04 12:19:47;;;;;;;10.32;6.10;;;;;;;;;;4833500;29;20041;-89
2023/12/04 12:22:13;;;;;;;8.77;5.85;;;;;;;;;;4829999;29;20050;-89
2023/12/04 12:24:40;;;;;;;11.70;6.50;;;;;;;;;;4818527;29;20157;-89
2023/12/04 12:27:06;;;;;;;9.60;5.78;;;;;;;;;;4809354;29;20046;-88
2023/12/04 12:29:32;;;;;;;9.70;5.93;;;;;;;;;;4809521;29;20470;-89
2023/12/04 12:31:58;;;;;;;10.13;5.90;;;;;;;;;;4829509;29;20152;-89
2023/12/04 12:34:24;;;;;;;11.07;5.57;;;;;;;;;;4823778;29;20050;-89
2023/12/04 12:36:50;;;;;;;11.15;6.43;;;;;;;;;;4833303;29;20046;-89
2023/12/04 12:39:16;;;;;;;9.15;5.95;;;;;;;;;;4830059;29;20041;-89
2023/12/04 12:41:49;;;;;;;6.40;4.18;;;;;;;;;;4836024;29;20602;-89
2023/12/04 12:44:15;;;;;;;11.93;5.60;;;;;;;;;;4833917;29;20060;-89
2023/12/04 12:46:41;;;;;;;10.05;5.95;;;;;;;;;;4819681;29;20046;-89
2023/12/04 12:49:07;;;;;;;8.15;4.13;;;;;;;;;;4816888;29;20048;-89
2023/12/04 12:51:33;;;;;;;10.10;6.13;;;;;;;;;;4820324;29;20420;-88
2023/12/04 12:53:59;;;;;;;9.05;5.70;;;;;;;;;;4813617;29;20045;-89
2023/12/04 12:56:28;;;;;;;8.25;4.65;;;;;;;;;;4826659;29;20074;-89
2023/12/04 12:58:54;;;;;;;10.35;4.43;;;;;;;;;;4810608;29;20390;-89
2023/12/04 13:01:25;;;;;;;9.00;5.18;;;;;;;;;;4825728;29;20749;-89
2023/12/04 13:03:51;;;;;;;10.88;5.68;;;;;;;;;;4810358;29;20046;-89
2023/12/04 13:06:17;;;;;;;7.47;4.85;;;;;;;;;;4828299;29;20065;-89
2023/12/04 13:08:44;;;;;;;10.40;6.00;;;;;;;;;;4821630;29;20077;-89
2023/12/04 13:11:10;;;;;;;8.40;5.45;;;;;;;;;;4807502;29;20050;-89
2023/12/04 13:13:36;;;;;;;10.88;5.85;;;;;;;;;;4811435;29;20045;-89
2023/12/04 13:16:02;;;;;;;10.68;5.65;;;;;;;;;;4819087;29;20656;-89
2023/12/04 13:18:31;;;;;;;7.78;4.03;;;;;;;;;;4801482;29;20098;-89
2023/12/04 13:20:57;;;;;;;10.25;5.45;;;;;;;;;;4810784;29;20084;-89
2023/12/04 13:23:24;;;;;;;9.20;6.00;;;;;;;;;;4806861;29;20148;-89
2023/12/04 13:25:50;;;;;;;8.10;4.63;;;;;;;;;;4826078;29;20060;-89
2023/12/04 13:28:16;;;;;;;7.22;4.05;;;;;;;;;;4814712;29;20057;-89
2023/12/04 13:30:42;;;;;;;8.98;6.05;;;;;;;;;;4836342;29;20064;-89
2023/12/04 13:33:08;;;;;;;11.50;5.95;;;;;;;;;;4809049;29;20054;-89
2023/12/04 13:35:34;;;;;;;7.50;4.72;;;;;;;;;;4837783;29;20068;-89
2023/12/04 13:38:00;;;;;;;6.25;3.95;;;;;;;;;;4822273;29;20152;-89
2023/12/04 13:40:28;;;;;;;11.32;5.75;;;;;;;;;;4816038;29;20045;-88
2023/12/04 13:45:39;;;;;;;11.30;6.03;;;;;;;;;;4812737;29;20062;-89
2023/12/04 13:48:05;;;;;;;9.75;5.88;;;;;;;;;;4804403;29;20840;-89
2023/12/04 13:50:31;;;;;;;11.02;6.03;;;;;;;;;;4811671;29;20050;-89
2023/12/04 13:52:57;;;;;;;9.43;6.18;;;;;;;;;;4807852;29;20057;-89
2023/12/04 13:55:46;;;;;;;10.23;5.05;;;;;;;;;;4803546;29;20092;-88
2023/12/04 13:58:37;;;;;;;11.35;6.72;;;;;;;;;;4804474;29;20054;-89
2023/12/04 14:01:00;;;;;;;9.95;5.30;;;;;;;;;;4834687;29;20081;-88
2023/12/04 14:03:27;;;;;;;10.13;5.20;;;;;;;;;;4815533;29;20054;-88
2023/12/04 14:05:54;;;;;;;11.20;6.68;;;;;;;;;;4829617;29;20069;-89
2023/12/04 14:08:20;;;;;;;9.73;5.32;;;;;;;;;;4795917;29;20060;-89
2023/12/04 14:10:46;;;;;;;8.02;5.18;;;;;;;;;;4802599;29;20058;-88
2023/12/04 14:13:12;;;;;;;11.25;6.38;;;;;;;;;;4813389;29;20730;-89
2023/12/04 14:15:39;;;;;;;12.93;6.53;;;;;;;;;;4827106;29;20049;-88
2023/12/04 14:18:05;;;;;;;12.73;5.63;;;;;;;;;;4808625;29;20129;-89
2023/12/04 14:20:31;;;;;;;10.68;6.07;;;;;;;;;;4806665;29;20151;-89
2023/12/04 14:22:57;;;;;;;10.65;5.60;;;;;;;;;;4824463;29;20054;-89
2023/12/04 14:25:23;;;;;;;8.77;5.10;;;;;;;;;;4807995;29;20055;-89